Time;durP1;ratioP1;P1;durP2;ratioP2;P2;SDS_P1;SDS_P2;PMS_P1;PMS_P2;Temp;Humidity;BMP_temperature;BMP_pressure;BME280_temperature;BME280_humidity;BME280_pressure;Samples;Min_cycle;Max_cycle;Signal;HPM_P1;HPM_P2
2023/06/22 00:01:10;;;;;;;1.98;1.70;;;;;;;21.92;58.93;96616.38;10348916;28;20038;-32
2023/06/22 00:06:10;;;;;;;3.33;1.70;;;;;;;21.84;58.33;96619.88;10334732;28;20053;-31
2023/06/22 00:11:11;;;;;;;4.10;1.75;;;;;;;21.77;58.15;96636.13;10336031;28;20041;-32
2023/06/22 00:16:12;;;;;;;3.67;2.10;;;;;;;21.75;58.07;96633.59;10351615;28;20058;-31
2023/06/22 00:21:13;;;;;;;3.90;1.63;;;;;;;21.71;58.17;96639.59;10336444;28;20038;-31
2023/06/22 00:26:14;;;;;;;2.08;1.40;;;;;;;21.70;58.09;96635.38;10360085;28;20841;-31
2023/06/22 00:31:14;;;;;;;4.15;2.60;;;;;;;21.72;57.93;96638.72;10342849;28;20113;-31
2023/06/22 00:36:16;;;;;;;4.55;1.83;;;;;;;21.85;59.37;96624.97;10342680;28;20042;-31
2023/06/22 00:41:19;;;;;;;3.42;1.70;;;;;;;22.02;58.93;96620.44;10334456;28;20038;-31
2023/06/22 00:46:21;;;;;;;3.67;2.17;;;;;;;21.97;59.70;96629.88;10322532;28;20041;-31
2023/06/22 00:51:24;;;;;;;2.97;1.52;;;;;;;21.87;58.71;96622.38;10325867;28;20042;-33
2023/06/22 00:56:24;;;;;;;3.85;2.13;;;;;;;21.83;58.17;96620.75;10340110;28;20494;-31
2023/06/22 01:01:25;;;;;;;3.63;2.50;;;;;;;21.81;58.25;96622.47;10333966;28;20041;-31
2023/06/22 01:06:37;;;;;;;5.80;1.73;;;;;;;21.76;57.99;96627.66;10348680;28;20088;-33
2023/06/22 01:11:45;;;;;;;3.92;1.95;;;;;;;21.74;57.90;96634.44;10330218;28;20044;-32
2023/06/22 01:16:48;;;;;;;3.17;1.73;;;;;;;21.75;58.01;96627.66;10350864;28;20042;-31
2023/06/22 01:21:51;;;;;;;10.63;3.35;;;;;;;21.79;61.39;96632.69;10342658;28;20053;-31
2023/06/22 01:27:05;;;;;;;3.90;2.13;;;;;;;21.99;59.32;96625.56;10333957;28;20495;-31
2023/06/22 01:32:06;;;;;;;2.10;1.45;;;;;;;22.03;58.67;96623.81;10336065;28;20486;-31
2023/06/22 01:37:09;;;;;;;4.47;2.05;;;;;;;21.91;58.75;96619.75;10332067;28;20495;-31
2023/06/22 01:42:10;;;;;;;1.90;1.75;;;;;;;21.82;58.40;96609.69;10347618;28;20046;-32
2023/06/22 01:47:15;;;;;;;3.17;1.52;;;;;;;21.76;58.04;96609.81;10332232;28;20038;-32
2023/06/22 01:52:18;;;;;;;3.40;1.73;;;;;;;21.75;58.05;96604.72;10338443;28;20117;-32
2023/06/22 01:57:19;;;;;;;3.58;1.85;;;;;;;21.72;57.91;96590.31;10333325;28;20038;-30
2023/06/22 02:02:26;;;;;;;2.50;1.58;;;;;;;21.71;57.92;96580.97;10328441;28;20042;-31
2023/06/22 02:07:32;;;;;;;4.47;1.98;;;;;;;21.72;57.81;96587.75;10356275;28;20042;-31
2023/06/22 02:12:37;;;;;;;2.65;1.90;;;;;;;21.93;59.39;96587.44;10316259;28;20141;-31
2023/06/22 02:17:37;;;;;;;3.17;1.90;;;;;;;22.04;58.66;96579.59;10327389;28;20039;-31
2023/06/22 02:22:38;;;;;;;4.68;1.98;;;;;;;21.93;58.85;96573.84;10342217;28;20030;-31
2023/06/22 02:27:41;;;;;;;8.07;2.20;;;;;;;21.82;58.24;96573.19;10332436;28;20061;-31
2023/06/22 02:32:42;;;;;;;4.13;1.92;;;;;;;21.78;57.87;96557.09;10337766;28;20035;-31
2023/06/22 02:37:42;;;;;;;2.47;1.50;;;;;;;21.73;57.69;96551.22;10334529;28;20053;-32
2023/06/22 02:42:43;;;;;;;3.07;1.67;;;;;;;21.73;57.73;96547.84;10346288;28;20056;-31
2023/06/22 02:47:44;;;;;;;6.72;2.60;;;;;;;21.70;57.51;96538.53;10335687;28;20033;-31
2023/06/22 02:52:44;;;;;;;4.72;2.13;;;;;;;21.69;57.84;96536.84;10343592;28;20058;-33
2023/06/22 02:57:46;;;;;;;8.07;3.35;;;;;;;21.85;60.63;96527.25;10338202;28;20116;-31
2023/06/22 03:02:48;;;;;;;6.63;3.22;;;;;;;22.03;61.43;96527.78;10340567;28;20113;-32
2023/06/22 03:07:49;;;;;;;1.83;1.63;;;;;;;21.98;59.32;96529.56;10339699;28;20030;-31
2023/06/22 03:12:49;;;;;;;8.07;2.38;;;;;;;21.85;58.96;96533.19;10336938;28;20034;-32
2023/06/22 03:17:50;;;;;;;3.57;2.40;;;;;;;21.79;58.40;96525.66;10328786;28;20092;-31
2023/06/22 03:22:50;;;;;;;6.13;3.37;;;;;;;21.75;58.13;96534.22;10342150;28;20031;-31
2023/06/22 03:27:51;;;;;;;6.10;2.77;;;;;;;21.74;58.24;96512.13;10327868;28;20495;-31
2023/06/22 03:32:51;;;;;;;8.23;4.43;;;;;;;21.71;58.03;96514.72;10340855;28;20113;-31
2023/06/22 03:37:51;;;;;;;5.33;3.33;;;;;;;21.68;57.94;96517.34;10341568;28;20490;-31
2023/06/22 03:42:52;;;;;;;6.18;2.92;;;;;;;21.72;58.86;96506.22;10334405;28;20038;-31
2023/06/22 03:47:53;;;;;;;6.90;4.50;;;;;;;21.93;62.63;96505.88;10330028;28;20129;-31
2023/06/22 03:52:53;;;;;;;8.57;4.60;;;;;;;22.11;64.39;96509.81;10362959;28;20296;-31
2023/06/22 03:57:56;;;;;;;12.10;4.63;;;;;;;22.02;64.29;96508.28;10378016;28;20037;-32
2023/06/22 04:02:57;;;;;;;7.70;4.88;;;;;;;21.96;64.65;96503.28;10376861;28;20040;-31
2023/06/22 04:07:57;;;;;;;7.83;4.13;;;;;;;21.92;64.66;96504.19;10375849;28;20489;-31
2023/06/22 04:12:57;;;;;;;9.40;4.40;;;;;;;21.87;64.97;96500.03;10376781;28;20533;-33
2023/06/22 04:17:58;;;;;;;8.93;4.80;;;;;;;21.84;65.35;96506.03;10371703;28;20358;-31
2023/06/22 04:22:58;;;;;;;13.77;5.30;;;;;;;21.84;65.62;96505.19;10371958;28;20049;-31
2023/06/22 04:27:58;;;;;;;13.53;5.43;;;;;;;21.81;65.77;96500.97;10342640;28;20397;-32
2023/06/22 04:33:00;;;;;;;11.67;6.07;;;;;;;21.79;65.95;96502.72;10345649;28;20034;-31
2023/06/22 04:38:00;;;;;;;17.55;7.28;;;;;;;21.88;65.58;96497.47;10329703;28;20046;-31
2023/06/22 04:43:02;;;;;;;11.03;5.93;;;;;;;22.01;66.11;96504.03;10331190;28;20529;-31
2023/06/22 04:48:03;;;;;;;15.98;6.70;;;;;;;22.06;66.04;96506.50;10342317;28;20760;-31
2023/06/22 04:53:05;;;;;;;16.42;7.75;;;;;;;21.88;65.27;96514.47;10334174;28;20041;-31
2023/06/22 04:58:05;;;;;;;10.18;5.80;;;;;;;21.77;63.38;96501.91;10327631;28;20035;-31
2023/06/22 05:03:06;;;;;;;11.80;6.50;;;;;;;21.78;62.32;96507.81;10342195;28;20757;-31
2023/06/22 05:08:06;;;;;;;13.77;5.55;;;;;;;21.71;61.22;96499.44;10337035;28;20042;-31
2023/06/22 05:13:07;;;;;;;14.80;4.83;;;;;;;21.87;62.63;96495.78;10358378;28;20038;-30
2023/06/22 05:18:07;;;;;;;11.67;4.67;;;;;;;21.98;62.14;96493.88;10335649;28;20038;-31
2023/06/22 05:23:07;;;;;;;11.10;3.90;;;;;;;21.86;61.99;96489.00;10341951;28;20049;-31
2023/06/22 05:28:11;;;;;;;13.57;6.00;;;;;;;21.78;65.70;96495.06;10334266;28;20785;-31
2023/06/22 05:33:11;;;;;;;10.43;5.72;;;;;;;21.74;60.91;96484.09;10333258;28;20034;-31
2023/06/22 05:38:11;;;;;;;8.13;4.50;;;;;;;21.71;60.44;96498.63;10357600;28;20038;-31
2023/06/22 05:43:12;;;;;;;8.23;4.37;;;;;;;21.68;60.18;96499.50;10334432;28;20042;-31
2023/06/22 05:48:12;;;;;;;6.45;3.85;;;;;;;21.67;59.81;96492.72;10359033;28;20620;-31
2023/06/22 05:53:13;;;;;;;7.82;3.63;;;;;;;21.69;60.62;96493.53;10350136;28;20038;-32
2023/06/22 05:58:13;;;;;;;7.50;4.37;;;;;;;21.89;61.13;96488.94;10347925;28;20038;-31
2023/06/22 06:03:16;;;;;;;5.18;3.22;;;;;;;21.97;59.90;96476.91;10356688;28;20292;-31
2023/06/22 06:08:17;;;;;;;6.50;3.30;;;;;;;21.86;60.60;96471.16;10375782;28;20026;-32
2023/06/22 06:13:17;;;;;;;5.40;3.10;;;;;;;21.78;60.10;96465.34;10389496;28;20041;-32
2023/06/22 06:18:17;;;;;;;9.07;3.07;;;;;;;21.74;59.56;96506.19;10383135;28;20603;-31
2023/06/22 06:23:18;;;;;;;6.27;3.10;;;;;;;21.70;59.39;96474.84;10388529;28;20096;-32
2023/06/22 06:28:18;;;;;;;4.40;3.13;;;;;;;21.67;59.45;96490.19;10395245;28;20155;-31
2023/06/22 06:33:20;;;;;;;3.87;3.23;;;;;;;21.67;59.34;96515.66;10379281;28;20042;-31
2023/06/22 06:38:21;;;;;;;6.60;4.00;;;;;;;21.75;61.38;96521.47;10397313;28;20417;-31
2023/06/22 06:43:22;;;;;;;6.15;3.28;;;;;;;21.93;60.46;96544.13;10399699;28;20052;-31
2023/06/22 06:48:23;;;;;;;6.03;3.00;;;;;;;21.97;59.56;96573.78;10375160;28;20409;-32
2023/06/22 06:53:23;;;;;;;5.57;3.37;;;;;;;21.86;60.19;96608.81;10374184;28;20112;-31
2023/06/22 06:58:23;;;;;;;5.65;3.20;;;;;;;21.79;59.54;96614.84;10349259;28;20029;-32
2023/06/22 07:03:24;;;;;;;4.70;2.87;;;;;;;21.74;59.17;96647.19;10394950;28;20052;-30
2023/06/22 07:08:24;;;;;;;3.17;2.53;;;;;;;21.70;59.13;96672.75;10380506;28;20052;-31
2023/06/22 07:13:25;;;;;;;6.03;3.30;;;;;;;21.68;59.20;96629.47;10395744;28;20312;-30
2023/06/22 07:18:26;;;;;;;4.27;2.90;;;;;;;21.68;59.20;96639.66;10383422;28;20072;-31
2023/06/22 07:23:26;;;;;;;5.20;3.35;;;;;;;21.77;60.80;96621.69;10392332;28;20034;-32
2023/06/22 07:28:27;;;;;;;4.00;3.37;;;;;;;21.96;60.04;96647.72;10399951;28;20033;-31
2023/06/22 07:33:27;;;;;;;4.82;2.80;;;;;;;21.92;59.42;96626.56;10364966;28;20037;-32
2023/06/22 07:38:28;;;;;;;3.90;2.80;;;;;;;21.84;59.75;96641.13;10362042;28;20416;-31
2023/06/22 07:43:29;;;;;;;4.53;2.80;;;;;;;21.79;59.27;96652.22;10392167;28;20038;-31
2023/06/22 07:48:30;;;;;;;4.05;3.30;;;;;;;21.73;59.28;96654.88;10382718;28;20021;-31
2023/06/22 07:53:30;;;;;;;3.97;2.70;;;;;;;21.70;58.90;96594.59;10365960;28;20502;-31
2023/06/22 07:58:31;;;;;;;5.13;2.70;;;;;;;21.69;59.10;96603.09;10401028;28;20048;-31
2023/06/22 08:03:32;;;;;;;4.88;3.33;;;;;;;21.67;58.92;96584.47;10361867;28;20490;-31
2023/06/22 08:08:32;;;;;;;4.55;3.15;;;;;;;21.78;60.82;96564.75;10374663;28;20037;-31
2023/06/22 08:13:33;;;;;;;2.97;2.60;;;;;;;21.96;60.17;96551.69;10394086;28;20036;-31
2023/06/22 08:18:33;;;;;;;5.93;2.10;;;;;;;21.99;59.44;96536.34;10406121;28;20091;-32
2023/06/22 08:23:36;;;;;;;2.90;2.33;;;;;;;21.88;59.85;96556.09;10404816;28;20284;-31
2023/06/22 08:28:36;;;;;;;4.70;3.08;;;;;;;21.79;59.06;96548.59;10379884;28;20446;-31
2023/06/22 08:33:37;;;;;;;3.83;2.10;;;;;;;21.75;58.94;96531.66;10340398;28;20034;-31
2023/06/22 08:38:38;;;;;;;2.60;2.17;;;;;;;21.72;59.03;96521.50;10393208;28;20042;-31
2023/06/22 08:43:38;;;;;;;3.70;2.67;;;;;;;21.70;58.92;96522.38;10365184;28;20033;-31
2023/06/22 08:48:38;;;;;;;2.85;2.42;;;;;;;21.70;58.78;96507.97;10406127;28;20045;-32
2023/06/22 08:53:39;;;;;;;2.70;2.40;;;;;;;21.73;60.81;96507.91;10392459;28;20037;-32
2023/06/22 08:58:39;;;;;;;2.92;2.58;;;;;;;21.93;59.96;96499.94;10391682;28;20033;-31
2023/06/22 09:03:40;;;;;;;2.40;2.03;;;;;;;22.00;59.19;96491.31;10386417;28;20038;-32
2023/06/22 09:08:40;;;;;;;3.33;2.43;;;;;;;21.88;59.56;96488.97;10350783;28;20296;-31
2023/06/22 09:13:41;;;;;;;4.53;2.40;;;;;;;21.81;59.15;96470.38;10391866;28;20033;-31
2023/06/22 09:18:41;;;;;;;3.33;2.22;;;;;;;21.77;58.85;96468.78;10401234;28;20033;-31
2023/06/22 09:23:42;;;;;;;4.68;2.50;;;;;;;21.76;59.03;96462.00;10367401;28;20041;-31
2023/06/22 09:28:42;;;;;;;3.50;2.50;;;;;;;21.73;59.07;96454.38;10400332;28;20052;-31
2023/06/22 09:33:42;;;;;;;3.73;2.73;;;;;;;21.73;58.89;96446.75;10383421;28;20021;-31
2023/06/22 09:38:43;;;;;;;3.50;2.70;;;;;;;21.75;61.08;96439.06;10407720;28;20494;-32
2023/06/22 09:43:43;;;;;;;3.53;2.60;;;;;;;21.96;60.26;96446.34;10375329;28;20397;-31
2023/06/22 09:48:43;;;;;;;3.00;2.33;;;;;;;22.01;59.67;96442.84;10388546;28;20022;-31
2023/06/22 09:53:44;;;;;;;3.57;2.50;;;;;;;21.89;60.01;96426.94;10355838;28;20116;-31
2023/06/22 09:58:52;;;;;;;2.50;1.90;;;;;;;21.85;59.36;96428.69;10394896;28;20116;-30
2023/06/22 10:03:56;;;;;;;3.78;3.38;;;;;;;21.80;58.97;96438.13;10398671;28;20044;-32
2023/06/22 10:08:56;;;;;;;5.97;3.45;;;;;;;21.79;59.33;96421.16;10392724;28;20367;-32
2023/06/22 10:13:57;;;;;;;4.63;3.57;;;;;;;21.76;59.18;96426.31;10386481;28;20033;-31
2023/06/22 10:18:57;;;;;;;3.53;2.73;;;;;;;21.74;59.09;96402.53;10376833;28;20038;-32
2023/06/22 10:23:58;;;;;;;2.50;2.30;;;;;;;21.80;61.75;96396.53;10372073;28;20048;-31
2023/06/22 10:28:58;;;;;;;3.00;2.60;;;;;;;21.97;60.02;96415.72;10373635;28;20044;-31
2023/06/22 10:33:59;;;;;;;3.35;2.45;;;;;;;22.03;59.58;96423.25;10404779;28;20425;-31
2023/06/22 10:39:01;;;;;;;3.13;2.42;;;;;;;21.92;59.97;96421.78;10368473;28;20037;-32
2023/06/22 10:44:02;;;;;;;3.05;2.63;;;;;;;21.85;59.54;96428.69;10382329;28;20061;-31
2023/06/22 10:49:02;;;;;;;5.63;3.05;;;;;;;21.84;61.01;96439.78;10395762;28;20038;-31
2023/06/22 10:54:05;;;;;;;5.03;2.90;;;;;;;21.83;60.81;96439.78;10378283;28;20037;-31
2023/06/22 10:59:05;;;;;;;7.10;3.60;;;;;;;21.81;60.16;96450.00;10364303;28;20037;-31
2023/06/22 11:04:06;;;;;;;5.97;3.97;;;;;;;21.83;60.12;96494.16;10381968;28;20115;-31
2023/06/22 11:09:06;;;;;;;7.43;3.93;;;;;;;21.84;61.77;96518.78;10377344;28;20026;-31
2023/06/22 11:14:06;;;;;;;8.50;2.87;;;;;;;22.02;61.37;96528.66;10374408;28;20120;-31
2023/06/22 11:19:07;;;;;;;4.63;3.00;;;;;;;22.08;60.02;96525.16;10376591;28;20085;-32
2023/06/22 11:24:07;;;;;;;5.05;2.58;;;;;;;21.96;60.96;96508.38;10382548;28;20045;-31
2023/06/22 11:29:08;;;;;;;10.85;4.35;;;;;;;21.90;61.00;96521.22;10382902;28;20071;-32
2023/06/22 11:34:08;;;;;;;8.45;4.35;;;;;;;21.87;61.31;96503.44;10370889;28;20053;-31
2023/06/22 11:39:09;;;;;;;15.00;4.10;;;;;;;21.84;60.58;96521.34;10353297;28;20038;-31
2023/06/22 11:44:10;;;;;;;14.38;4.47;;;;;;;21.85;60.95;96533.19;10410971;28;20044;-32
2023/06/22 11:49:10;;;;;;;11.10;4.40;;;;;;;21.84;60.66;96510.28;10394938;28;20067;-31
2023/06/22 11:54:10;;;;;;;14.97;3.83;;;;;;;21.83;60.19;96506.91;10358546;28;20249;-31
2023/06/22 11:59:11;;;;;;;8.20;3.50;;;;;;;22.00;61.18;96497.25;10371984;28;20449;-31
2023/06/22 12:04:11;;;;;;;3.23;2.40;;;;;;;22.08;60.43;96492.84;10398354;28;20574;-32
2023/06/22 12:09:13;;;;;;;6.07;2.93;;;;;;;21.97;60.88;96479.44;10348545;28;20059;-31
2023/06/22 12:14:13;;;;;;;8.07;3.83;;;;;;;21.91;60.50;96494.84;10374480;28;20070;-31
2023/06/22 12:19:14;;;;;;;6.73;3.50;;;;;;;21.87;60.14;96485.59;10384726;28;20044;-31
2023/06/22 12:24:14;;;;;;;7.03;3.00;;;;;;;21.84;59.79;96512.81;10368835;28;20042;-31
2023/06/22 12:29:15;;;;;;;6.20;2.73;;;;;;;21.82;59.72;96512.03;10382720;28;20302;-31
2023/06/22 12:34:15;;;;;;;5.80;3.60;;;;;;;21.84;60.11;96517.94;10391698;28;20441;-32
2023/06/22 12:39:15;;;;;;;8.73;3.33;;;;;;;21.84;60.12;96551.06;10387978;28;20038;-31
2023/06/22 12:44:17;;;;;;;3.67;3.03;;;;;;;22.00;61.29;96566.09;10395958;28;20056;-31
2023/06/22 12:49:17;;;;;;;4.32;2.80;;;;;;;22.12;60.55;96575.22;10385982;28;20100;-31
2023/06/22 12:54:17;;;;;;;8.83;2.83;;;;;;;21.96;59.93;96567.00;10383101;28;20120;-31
2023/06/22 12:59:18;;;;;;;3.07;1.80;;;;;;;21.92;60.16;96551.78;10387272;28;20380;-31
2023/06/22 13:04:18;;;;;;;4.73;2.70;;;;;;;21.90;60.10;96546.69;10380765;28;20153;-32
2023/06/22 13:09:19;;;;;;;3.80;2.30;;;;;;;21.88;59.84;96550.16;10357249;28;20045;-31
2023/06/22 13:14:20;;;;;;;3.03;2.40;;;;;;;21.87;59.62;96556.94;10396841;28;20464;-31
2023/06/22 13:19:20;;;;;;;3.90;2.70;;;;;;;21.84;59.86;96539.16;10375705;28;20127;-31
2023/06/22 13:24:20;;;;;;;3.17;2.47;;;;;;;21.82;60.00;96528.13;10375478;28;20044;-33
2023/06/22 13:29:21;;;;;;;6.53;2.77;;;;;;;21.99;60.76;96526.16;10357992;28;20088;-31
2023/06/22 13:34:21;;;;;;;4.40;2.93;;;;;;;22.14;60.26;96530.16;10379332;28;20038;-31
2023/06/22 13:39:21;;;;;;;3.13;2.50;;;;;;;22.03;59.43;96540.53;10388945;28;20041;-32
2023/06/22 13:44:22;;;;;;;4.33;2.43;;;;;;;21.93;59.73;96536.47;10394260;28;20045;-32
2023/06/22 13:49:22;;;;;;;3.88;2.50;;;;;;;21.91;59.67;96553.47;10383129;28;20072;-32
2023/06/22 13:54:23;;;;;;;5.97;2.90;;;;;;;21.87;59.73;96582.44;10374470;28;20026;-32
2023/06/22 13:59:23;;;;;;;4.83;3.20;;;;;;;21.86;59.89;96562.06;10373060;28;20125;-32
2023/06/22 14:04:24;;;;;;;5.53;3.07;;;;;;;21.84;59.57;96539.16;10376949;28;20552;-30
2023/06/22 14:09:25;;;;;;;7.63;2.72;;;;;;;21.83;59.72;96514.56;10378414;28;20033;-31
2023/06/22 14:14:26;;;;;;;7.65;2.88;;;;;;;22.00;61.92;96506.59;10398087;28;20549;-32
2023/06/22 14:19:27;;;;;;;8.43;2.80;;;;;;;22.14;61.15;96515.69;10398916;28;20037;-30
2023/06/22 14:24:27;;;;;;;11.88;2.92;;;;;;;22.09;60.35;96517.50;10381432;28;20034;-31
2023/06/22 14:29:27;;;;;;;16.63;3.27;;;;;;;21.95;59.92;96499.03;10364524;28;20144;-31
2023/06/22 14:34:28;;;;;;;14.30;3.13;;;;;;;21.92;59.84;96494.00;10392466;28;20110;-31
2023/06/22 14:39:28;;;;;;;7.20;2.60;;;;;;;21.88;59.93;96501.72;10378014;28;20036;-32
2023/06/22 14:44:31;;;;;;;6.97;2.90;;;;;;;21.87;59.99;96490.69;10366535;28;20305;-32
2023/06/22 14:49:32;;;;;;;8.65;2.92;;;;;;;21.85;59.73;96502.63;10378308;28;20328;-31
2023/06/22 14:54:32;;;;;;;12.83;2.70;;;;;;;21.86;59.52;96506.00;10366832;28;20065;-31
2023/06/22 14:59:33;;;;;;;6.93;2.87;;;;;;;21.98;61.84;96493.06;10370024;28;20349;-31
2023/06/22 15:04:34;;;;;;;10.13;2.87;;;;;;;22.15;60.77;96504.63;10387916;28;20037;-33
2023/06/22 15:09:35;;;;;;;9.63;2.55;;;;;;;22.13;60.37;96501.25;10378809;28;20324;-31
2023/06/22 15:14:35;;;;;;;10.37;3.90;;;;;;;22.01;59.75;96496.41;10387920;28;20544;-31
2023/06/22 15:19:37;;;;;;;12.37;4.50;;;;;;;21.97;59.95;96499.84;10379179;28;20041;-30
2023/06/22 15:24:38;;;;;;;11.38;4.43;;;;;;;21.91;59.90;96479.56;10399928;28;20094;-31
2023/06/22 15:29:38;;;;;;;10.67;3.57;;;;;;;21.87;59.94;96466.88;10361182;28;20051;-33
2023/06/22 15:34:38;;;;;;;6.90;3.10;;;;;;;21.88;59.93;96481.34;10383010;28;20031;-32
2023/06/22 15:39:38;;;;;;;12.77;4.27;;;;;;;21.87;60.14;96480.50;10365623;28;20038;-32
2023/06/22 15:44:39;;;;;;;5.13;2.50;;;;;;;21.97;61.62;96461.59;10355971;28;20058;-32
2023/06/22 15:49:39;;;;;;;6.07;3.07;;;;;;;22.17;61.58;96463.81;10358236;28;20529;-31
2023/06/22 15:54:39;;;;;;;5.40;3.03;;;;;;;22.13;61.48;96452.00;10345210;28;20027;-32
2023/06/22 15:59:40;;;;;;;7.77;3.20;;;;;;;22.06;62.25;96446.13;10359278;28;20034;-32
2023/06/22 16:04:41;;;;;;;5.28;2.95;;;;;;;22.02;61.60;96475.13;10375334;28;20041;-32
2023/06/22 16:09:41;;;;;;;13.37;3.40;;;;;;;22.12;62.46;96471.53;10356153;28;20161;-31
2023/06/22 16:14:42;;;;;;;8.10;3.90;;;;;;;22.07;64.13;96488.63;10365388;28;20037;-31
2023/06/22 16:19:42;;;;;;;8.18;2.60;;;;;;;21.96;59.95;96482.03;10386222;28;20037;-31
2023/06/22 16:24:43;;;;;;;8.03;2.33;;;;;;;21.91;60.44;96486.38;10363870;28;20430;-32
2023/06/22 16:29:43;;;;;;;8.40;2.63;;;;;;;22.05;62.40;96475.06;10376172;28;20048;-31
2023/06/22 16:34:45;;;;;;;6.80;2.33;;;;;;;22.19;60.81;96418.72;10358582;28;20083;-31
2023/06/22 16:39:45;;;;;;;4.93;2.15;;;;;;;22.17;60.95;96458.69;10377652;28;20021;-31
2023/06/22 16:44:46;;;;;;;5.20;2.70;;;;;;;22.12;61.58;96493.63;10385998;28;20485;-31
2023/06/22 16:49:46;;;;;;;5.87;2.97;;;;;;;22.07;60.99;96478.41;10406337;28;20025;-31
2023/06/22 16:54:47;;;;;;;7.20;2.97;;;;;;;21.98;60.21;96448.00;10352554;28;20034;-31
2023/06/22 16:59:52;;;;;;;4.10;2.50;;;;;;;21.92;60.04;96442.16;10357810;28;20081;-31
2023/06/22 17:04:53;;;;;;;4.60;2.40;;;;;;;21.87;59.86;96439.69;10370545;28;20080;-32
2023/06/22 17:09:56;;;;;;;8.50;2.38;;;;;;;21.87;59.83;96465.19;10391356;28;20072;-29
2023/06/22 17:14:57;;;;;;;6.32;2.85;;;;;;;21.95;63.23;96465.91;10367074;28;20034;-31
2023/06/22 17:19:58;;;;;;;5.82;1.92;;;;;;;22.16;60.76;96478.25;10386866;28;20447;-31
2023/06/22 17:24:58;;;;;;;3.70;1.80;;;;;;;22.17;60.06;96502.91;10362807;28;20068;-32
2023/06/22 17:30:16;;;;;;;4.97;2.40;;;;;;;22.03;59.84;96497.19;10337987;28;20073;-32
2023/06/22 17:35:16;;;;;;;4.25;2.25;;;;;;;21.96;60.20;96499.88;10366977;28;20668;-33
2023/06/22 17:40:21;;;;;;;5.53;2.28;;;;;;;21.94;59.61;96524.53;10385018;28;20044;-32
2023/06/22 17:45:23;;;;;;;4.15;2.10;;;;;;;21.92;59.74;96511.84;10362233;28;20048;-32
2023/06/22 17:50:25;;;;;;;4.55;2.50;;;;;;;21.88;59.85;96510.19;10396291;28;20035;-31
2023/06/22 17:55:26;;;;;;;5.85;2.67;;;;;;;21.90;60.18;96535.69;10367917;28;20034;-32
2023/06/22 18:00:26;;;;;;;7.78;2.30;;;;;;;21.96;62.39;96607.78;10370496;28;20153;-32
2023/06/22 18:05:32;;;;;;;11.75;3.25;;;;;;;22.20;62.82;96698.34;10387526;28;20104;-31
2023/06/22 18:10:35;;;;;;;4.87;2.77;;;;;;;22.25;62.72;96722.09;10361984;28;20041;-31
2023/06/22 18:15:37;;;;;;;5.97;3.47;;;;;;;22.17;63.61;96694.16;10327423;28;20062;-33
2023/06/22 18:20:39;;;;;;;8.65;3.20;;;;;;;22.19;65.43;96681.38;10356158;28;20026;-32
2023/06/22 18:25:44;;;;;;;6.88;3.22;;;;;;;22.04;61.35;96673.94;10357687;28;20038;-32
2023/06/22 18:30:46;;;;;;;7.95;2.40;;;;;;;21.96;60.41;96671.53;10397480;28;20045;-32
2023/06/22 18:35:52;;;;;;;7.30;2.55;;;;;;;21.90;60.16;96665.69;10376866;28;20035;-33
2023/06/22 18:40:52;;;;;;;4.65;2.20;;;;;;;21.88;60.21;96686.09;10366572;28;20037;-32
2023/06/22 18:45:53;;;;;;;5.25;1.88;;;;;;;21.89;60.47;96686.94;10392529;28;20489;-31
2023/06/22 18:51:10;;;;;;;4.30;1.70;;;;;;;22.12;61.75;96682.31;10388137;28;20029;-32
2023/06/22 18:56:12;;;;;;;2.88;1.80;;;;;;;22.15;60.53;96680.56;10353828;28;20301;-33
2023/06/22 19:01:17;;;;;;;3.38;1.90;;;;;;;22.08;61.27;96699.38;10335559;28;20486;-32
2023/06/22 19:06:52;;;;;;;5.10;2.10;;;;;;;22.01;60.70;96715.66;10351918;28;20482;-32
2023/06/22 19:12:22;;;;;;;6.50;2.58;;;;;;;21.94;59.81;96729.34;10345255;28;20117;-32
2023/06/22 19:17:22;;;;;;;1.90;1.58;;;;;;;21.92;60.05;96730.22;10361628;28;20056;-32
2023/06/22 19:22:43;;;;;;;2.95;1.98;;;;;;;21.92;60.35;96736.19;10369898;28;20053;-32
2023/06/22 19:27:46;;;;;;;3.70;1.80;;;;;;;21.89;59.78;96743.03;10406352;28;20025;-32
2023/06/22 19:32:47;;;;;;;6.88;2.47;;;;;;;21.95;63.00;96748.88;10380120;28;20480;-32
2023/06/22 19:37:48;;;;;;;3.95;1.80;;;;;;;22.14;63.13;96750.31;10375805;28;20025;-32
2023/06/22 19:42:53;;;;;;;3.03;1.90;;;;;;;22.13;63.25;96743.53;10353009;28;20453;-32
2023/06/22 19:47:53;;;;;;;4.20;2.20;;;;;;;22.08;64.06;96745.28;10393067;28;20104;-32
2023/06/22 19:52:53;;;;;;;5.10;2.30;;;;;;;22.04;61.98;96741.09;10387799;28;20034;-32
2023/06/22 19:57:54;;;;;;;3.20;1.90;;;;;;;22.01;61.99;96753.91;10389391;28;20298;-32
2023/06/22 20:02:54;;;;;;;4.40;2.60;;;;;;;22.01;63.43;96761.53;10396149;28;20021;-32
2023/06/22 20:07:55;;;;;;;4.15;2.22;;;;;;;22.00;60.92;96761.56;10391457;28;20033;-35
2023/06/22 20:12:55;;;;;;;4.83;2.50;;;;;;;21.99;62.43;96744.56;10390511;28;20042;-32
2023/06/22 20:17:59;;;;;;;4.80;2.33;;;;;;;22.01;63.60;96746.25;10384603;28;20464;-31
2023/06/22 20:23:01;;;;;;;5.55;2.60;;;;;;;22.18;64.35;96738.34;10385757;28;20065;-33
2023/06/22 20:28:08;;;;;;;5.03;2.65;;;;;;;22.19;64.64;96732.38;10381662;28;20057;-32
2023/06/22 20:33:16;;;;;;;4.97;2.58;;;;;;;22.09;63.55;96721.50;10380817;28;20464;-32
2023/06/22 20:38:22;;;;;;;2.83;2.03;;;;;;;22.01;61.99;96733.50;10391811;28;20034;-31
2023/06/22 20:43:23;;;;;;;7.30;2.50;;;;;;;21.97;60.53;96747.13;10376068;28;20036;-31
2023/06/22 20:48:24;;;;;;;7.18;2.10;;;;;;;21.90;60.35;96750.63;10396777;28;20036;-32
2023/06/22 20:53:24;;;;;;;3.80;2.08;;;;;;;21.88;60.32;96742.16;10380854;28;20031;-32
2023/06/22 20:58:25;;;;;;;3.10;2.10;;;;;;;21.86;59.90;96746.44;10400749;28;20040;-32
2023/06/22 21:03:25;;;;;;;1.93;1.30;;;;;;;21.85;59.81;96766.84;10381057;28;20036;-31
2023/06/22 21:08:25;;;;;;;3.60;2.17;;;;;;;22.07;61.65;96778.47;10363149;28;20030;-32
2023/06/22 21:13:26;;;;;;;2.30;1.70;;;;;;;22.16;60.92;96768.97;10383661;28;20033;-32
2023/06/22 21:18:26;;;;;;;2.37;1.67;;;;;;;22.05;61.18;96770.00;10398891;28;20031;-32
2023/06/22 21:23:26;;;;;;;2.57;1.70;;;;;;;21.97;60.91;96785.38;10383111;28;20026;-32
2023/06/22 21:28:27;;;;;;;2.27;1.93;;;;;;;21.92;59.84;96794.81;10377528;28;20037;-31
2023/06/22 21:33:27;;;;;;;2.07;1.50;;;;;;;21.89;59.89;96794.81;10359107;28;20173;-32
2023/06/22 21:38:27;;;;;;;1.67;1.40;;;;;;;21.88;59.76;96787.22;10367149;28;20029;-32
2023/06/22 21:43:28;;;;;;;3.13;1.30;;;;;;;21.87;60.38;96781.25;10370351;28;20041;-32
2023/06/22 21:48:28;;;;;;;3.87;1.80;;;;;;;21.86;59.54;96792.31;10338585;28;20025;-32
2023/06/22 21:53:28;;;;;;;2.43;1.90;;;;;;;22.02;60.54;96791.28;10360750;28;20039;-32
2023/06/22 21:58:29;;;;;;;2.70;1.47;;;;;;;22.15;60.21;96790.25;10366741;28;20472;-32
2023/06/22 22:03:29;;;;;;;1.70;1.43;;;;;;;22.05;60.42;96793.78;10376818;28;20061;-32
2023/06/22 22:08:30;;;;;;;3.17;1.50;;;;;;;21.96;60.13;96806.63;10373454;28;20401;-32
2023/06/22 22:13:32;;;;;;;2.00;1.20;;;;;;;21.91;59.41;96808.38;10388896;28;20375;-33
2023/06/22 22:18:34;;;;;;;2.92;1.80;;;;;;;21.88;59.43;96805.88;10354158;28;20041;-32
2023/06/22 22:23:35;;;;;;;2.47;1.25;;;;;;;21.86;59.61;96794.88;10373771;28;20040;-32
2023/06/22 22:28:35;;;;;;;1.70;1.40;;;;;;;21.87;59.28;96804.22;10377028;28;20098;-32
2023/06/22 22:33:36;;;;;;;3.20;1.40;;;;;;;21.83;59.24;96810.22;10389435;28;20060;-32
2023/06/22 22:38:40;;;;;;;1.37;1.13;;;;;;;21.98;61.04;96807.47;10376231;28;20039;-32
2023/06/22 22:43:40;;;;;;;1.48;1.20;;;;;;;22.14;60.84;96816.59;10378560;28;20087;-31
2023/06/22 22:48:41;;;;;;;1.13;0.90;;;;;;;22.09;60.49;96828.59;10387559;28;20034;-32
2023/06/22 22:53:42;;;;;;;0.93;0.82;;;;;;;21.98;60.29;96822.75;10382851;28;20042;-32
2023/06/22 22:58:42;;;;;;;1.27;0.98;;;;;;;21.91;59.82;96817.75;10383616;28;20046;-32
2023/06/22 23:03:42;;;;;;;3.70;1.00;;;;;;;21.88;59.50;96826.28;10380144;28;20034;-32
2023/06/22 23:08:43;;;;;;;2.17;1.00;;;;;;;21.83;59.30;96825.50;10376031;28;20027;-32
2023/06/22 23:13:43;;;;;;;1.80;1.30;;;;;;;21.82;59.10;96834.00;10374107;28;20040;-33
2023/06/22 23:18:44;;;;;;;1.37;0.90;;;;;;;21.80;59.13;96827.25;10387201;28;20664;-32